Time;durP1;ratioP1;P1;durP2;ratioP2;P2;SDS_P1;SDS_P2;PMS_P1;PMS_P2;Temp;Humidity;BMP_temperature;BMP_pressure;BME280_temperature;BME280_humidity;BME280_pressure;Samples;Min_cycle;Max_cycle;Signal;HPM_P1;HPM_P2
2021/06/11 00:01:03;;;;;;;7.20;5.30;;;15.00;99.90;;;;;;4961536;28;20787;-76
2021/06/11 00:03:30;;;;;;;6.97;5.20;;;15.00;99.90;;;;;;4971690;28;20234;-76
2021/06/11 00:05:56;;;;;;;7.23;5.07;;;15.00;99.90;;;;;;4965707;28;20616;-76
2021/06/11 00:08:22;;;;;;;8.10;5.37;;;15.00;99.90;;;;;;4970680;28;20703;-76
2021/06/11 00:10:49;;;;;;;6.80;5.23;;;15.00;99.90;;;;;;4965899;28;20282;-76
2021/06/11 00:13:15;;;;;;;7.97;5.27;;;15.00;99.90;;;;;;4957629;28;20281;-76
2021/06/11 00:15:42;;;;;;;7.60;5.17;;;15.00;99.90;;;;;;4971047;28;20626;-76
2021/06/11 00:18:10;;;;;;;7.03;4.60;;;15.00;99.90;;;;;;4971231;28;20290;-76
2021/06/11 00:20:37;;;;;;;7.17;4.93;;;15.00;99.90;;;;;;4972404;28;20309;-76
2021/06/11 00:23:03;;;;;;;7.53;4.93;;;15.00;99.90;;;;;;4971946;28;20289;-76
2021/06/11 00:25:30;;;;;;;7.73;5.40;;;15.00;99.90;;;;;;4971765;28;20230;-76
2021/06/11 00:27:59;;;;;;;8.97;4.97;;;15.00;99.90;;;;;;4967727;28;20237;-76
2021/06/11 00:30:26;;;;;;;8.43;5.00;;;15.00;99.90;;;;;;4957895;28;20241;-76
2021/06/11 00:32:53;;;;;;;8.20;4.73;;;14.90;99.90;;;;;;4971917;28;20225;-76
2021/06/11 00:35:21;;;;;;;7.23;4.93;;;14.90;99.90;;;;;;4959880;28;20287;-76
2021/06/11 00:37:47;;;;;;;6.87;5.20;;;14.90;99.90;;;;;;4971821;28;20237;-76
2021/06/11 00:40:14;;;;;;;7.97;5.33;;;14.90;99.90;;;;;;4962967;28;20203;-76
2021/06/11 00:42:41;;;;;;;5.87;4.70;;;14.90;99.90;;;;;;4957102;28;20230;-76
2021/06/11 00:45:10;;;;;;;8.70;5.37;;;14.90;99.90;;;;;;4965645;28;20226;-75
2021/06/11 00:47:36;;;;;;;8.07;5.40;;;14.90;99.90;;;;;;4970119;28;20557;-76
2021/06/11 00:50:03;;;;;;;8.53;5.47;;;15.00;99.90;;;;;;4972007;28;20317;-75
2021/06/11 00:52:33;;;;;;;7.70;5.60;;;14.90;99.90;;;;;;4956375;28;20215;-76
2021/06/11 00:55:00;;;;;;;7.40;5.50;;;14.90;99.90;;;;;;4970027;28;20194;-75
2021/06/11 00:57:26;;;;;;;8.33;5.50;;;14.80;99.90;;;;;;4963967;28;20211;-76
2021/06/11 00:59:54;;;;;;;7.30;5.10;;;14.70;99.90;;;;;;4955590;28;20242;-75
2021/06/11 01:02:22;;;;;;;6.47;4.87;;;14.70;99.90;;;;;;4952510;28;20211;-75
2021/06/11 01:04:49;;;;;;;7.10;5.10;;;14.80;99.90;;;;;;4964856;28;20227;-76
2021/06/11 01:07:16;;;;;;;7.30;5.20;;;14.70;99.90;;;;;;4971779;28;20680;-76
2021/06/11 01:09:45;;;;;;;8.90;5.23;;;14.60;99.90;;;;;;4970904;28;20238;-76
2021/06/11 01:12:15;;;;;;;7.00;4.67;;;14.60;99.90;;;;;;4971914;28;20253;-76
2021/06/11 01:14:42;;;;;;;6.33;4.90;;;14.60;99.90;;;;;;4973131;28;20241;-75
2021/06/11 01:17:09;;;;;;;6.90;5.03;;;14.60;99.90;;;;;;4963307;28;20597;-76
2021/06/11 01:19:39;;;;;;;6.40;4.47;;;14.70;99.90;;;;;;4969865;28;20286;-76
2021/06/11 01:22:10;;;;;;;7.83;5.53;;;14.60;99.90;;;;;;4974627;28;20317;-76
2021/06/11 01:24:57;;;;;;;7.03;5.07;;;14.70;99.90;;;;;;4973415;28;20242;-75
2021/06/11 01:27:26;;;;;;;7.97;5.87;;;14.60;99.90;;;;;;4961278;28;20206;-76
2021/06/11 01:29:56;;;;;;;7.20;5.40;;;14.60;99.90;;;;;;4974412;28;20210;-76
2021/06/11 01:32:25;;;;;;;7.40;5.23;;;14.50;99.90;;;;;;4974339;28;20795;-75
2021/06/11 01:34:53;;;;;;;9.10;5.17;;;14.40;99.90;;;;;;4973354;28;20209;-76
2021/06/11 01:37:24;;;;;;;8.03;5.07;;;14.40;99.90;;;;;;4963355;28;20689;-76
2021/06/11 01:39:57;;;;;;;7.87;5.50;;;14.50;99.90;;;;;;4971466;28;20245;-76
2021/06/11 01:42:27;;;;;;;7.13;5.07;;;14.50;99.90;;;;;;4963990;28;20234;-76
2021/06/11 01:44:55;;;;;;;7.40;5.23;;;14.50;99.90;;;;;;4975274;28;20266;-76
2021/06/11 01:47:23;;;;;;;8.03;5.10;;;14.50;99.90;;;;;;4969431;28;21012;-75
2021/06/11 01:49:51;;;;;;;5.90;4.80;;;14.50;99.90;;;;;;4962867;28;20238;-76
2021/06/11 01:52:22;;;;;;;7.47;4.87;;;14.50;99.90;;;;;;4972517;28;20321;-75
2021/06/11 01:54:48;;;;;;;8.30;5.50;;;14.40;99.90;;;;;;4969941;28;20193;-75
2021/06/11 01:57:16;;;;;;;7.63;4.80;;;14.50;99.90;;;;;;4974853;28;20249;-76
2021/06/11 01:59:45;;;;;;;8.23;5.20;;;14.50;99.90;;;;;;4971842;28;20207;-76
2021/06/11 02:02:12;;;;;;;7.43;5.00;;;14.50;99.90;;;;;;4971150;28;20286;-75
2021/06/11 02:04:39;;;;;;;7.00;5.20;;;14.40;99.90;;;;;;4959654;28;20315;-75
2021/06/11 02:07:08;;;;;;;7.70;5.17;;;14.40;99.90;;;;;;4963743;28;20226;-75
2021/06/11 02:09:36;;;;;;;7.77;5.10;;;14.40;99.90;;;;;;4968892;28;20215;-76
2021/06/11 02:12:03;;;;;;;8.17;5.70;;;14.40;99.90;;;;;;4974356;28;20300;-76
2021/06/11 02:14:29;;;;;;;7.40;5.10;;;14.40;99.90;;;;;;4963245;28;20241;-75
2021/06/11 02:16:59;;;;;;;9.33;5.37;;;14.50;99.90;;;;;;4955189;29;20235;-76
2021/06/11 02:19:27;;;;;;;6.60;4.83;;;14.40;99.90;;;;;;4955043;29;20242;-75
2021/06/11 02:21:54;;;;;;;8.23;5.40;;;14.40;99.90;;;;;;4955132;29;20612;-75
2021/06/11 02:24:20;;;;;;;7.60;4.97;;;14.50;99.90;;;;;;4954899;28;20314;-75
2021/06/11 02:26:48;;;;;;;7.63;5.10;;;14.40;99.90;;;;;;4967829;28;20243;-76
2021/06/11 02:29:14;;;;;;;7.70;5.40;;;14.40;99.90;;;;;;4959728;28;20289;-75
2021/06/11 02:31:41;;;;;;;10.07;5.83;;;14.40;99.90;;;;;;4974479;28;20619;-75
2021/06/11 02:34:11;;;;;;;7.97;5.10;;;14.30;99.90;;;;;;4963900;28;20191;-76
2021/06/11 02:36:38;;;;;;;8.00;5.07;;;14.20;99.90;;;;;;4973938;28;20687;-75
2021/06/11 02:39:05;;;;;;;7.13;5.13;;;14.20;99.90;;;;;;4973210;28;20293;-75
2021/06/11 02:41:40;;;;;;;6.50;5.13;;;14.20;99.90;;;;;;4973759;28;20285;-76
2021/06/11 02:44:08;;;;;;;6.80;4.67;;;14.10;99.90;;;;;;4969624;28;20257;-76
2021/06/11 02:46:39;;;;;;;8.27;5.17;;;14.20;99.90;;;;;;4973677;28;20234;-76
2021/06/11 02:49:12;;;;;;;9.10;5.17;;;14.20;99.90;;;;;;4966412;28;20321;-76
2021/06/11 02:51:42;;;;;;;8.87;5.67;;;14.30;99.90;;;;;;4947371;28;20227;-75
2021/06/11 02:54:12;;;;;;;8.37;5.17;;;14.20;99.90;;;;;;4973513;28;20750;-76
2021/06/11 02:56:43;;;;;;;8.00;5.40;;;14.20;99.90;;;;;;4971983;28;20289;-75
2021/06/11 02:59:15;;;;;;;8.87;4.90;;;14.20;99.90;;;;;;4973938;28;20206;-75
2021/06/11 03:01:50;;;;;;;8.83;5.27;;;14.10;99.90;;;;;;4957525;28;20714;-76
2021/06/11 03:04:18;;;;;;;8.43;5.00;;;14.20;99.90;;;;;;4955287;28;20230;-75
2021/06/11 03:06:48;;;;;;;8.67;5.10;;;14.10;99.90;;;;;;4964648;28;20198;-75
2021/06/11 03:09:19;;;;;;;7.70;4.83;;;14.10;99.90;;;;;;4965697;28;20226;-75
2021/06/11 03:11:47;;;;;;;7.90;5.20;;;14.10;99.90;;;;;;4965354;28;20198;-75
2021/06/11 03:14:14;;;;;;;9.13;4.90;;;14.20;99.90;;;;;;4967632;28;20226;-76
2021/06/11 03:16:46;;;;;;;9.23;5.13;;;14.20;99.90;;;;;;4966226;28;20282;-76
2021/06/11 03:19:15;;;;;;;11.50;5.30;;;14.20;99.90;;;;;;4962279;28;20701;-77
2021/06/11 03:21:47;;;;;;;7.00;5.10;;;14.20;99.90;;;;;;4973020;28;20297;-77
2021/06/11 03:24:20;;;;;;;8.90;4.73;;;14.20;99.90;;;;;;4964255;28;20337;-77
2021/06/11 03:26:51;;;;;;;7.67;4.83;;;14.10;99.90;;;;;;4964323;28;20285;-76
2021/06/11 03:29:23;;;;;;;8.57;5.43;;;14.10;99.90;;;;;;4959279;28;20771;-76
2021/06/11 03:31:55;;;;;;;8.10;4.60;;;14.00;99.90;;;;;;4946968;28;20209;-76
2021/06/11 03:34:24;;;;;;;8.13;4.87;;;14.00;99.90;;;;;;4969161;28;20217;-76
2021/06/11 03:36:54;;;;;;;8.90;5.03;;;14.00;99.90;;;;;;4971463;28;20222;-76
2021/06/11 03:39:25;;;;;;;9.87;5.23;;;14.00;99.90;;;;;;4971841;28;20206;-76
2021/06/11 03:41:53;;;;;;;6.93;5.20;;;14.10;99.90;;;;;;4957491;28;20344;-76
2021/06/11 03:44:21;;;;;;;12.80;6.17;;;14.10;99.90;;;;;;4963891;28;20229;-76
2021/06/11 03:46:49;;;;;;;12.13;6.23;;;14.00;99.90;;;;;;4973396;28;20234;-76
2021/06/11 03:49:19;;;;;;;14.23;6.60;;;14.00;99.90;;;;;;4966788;28;20281;-76
2021/06/11 03:51:46;;;;;;;11.03;6.73;;;14.00;99.90;;;;;;4936352;29;20341;-76
2021/06/11 03:54:16;;;;;;;10.50;6.83;;;14.00;99.90;;;;;;4953332;29;20342;-76
2021/06/11 03:56:45;;;;;;;10.93;6.13;;;14.00;99.90;;;;;;4957729;28;20289;-75
2021/06/11 03:59:15;;;;;;;10.80;6.70;;;14.10;99.90;;;;;;4967213;28;20290;-76
2021/06/11 04:01:45;;;;;;;13.30;6.03;;;14.10;99.90;;;;;;4957089;28;20274;-76
2021/06/11 04:04:11;;;;;;;14.63;5.67;;;14.10;99.90;;;;;;4953152;29;20242;-76
2021/06/11 04:06:41;;;;;;;14.87;5.73;;;14.00;99.90;;;;;;4969997;28;20237;-76
2021/06/11 04:09:10;;;;;;;10.50;5.47;;;14.10;99.90;;;;;;4972698;28;20565;-76
2021/06/11 04:11:43;;;;;;;11.60;5.30;;;14.10;99.90;;;;;;4972752;28;20233;-76
2021/06/11 04:14:15;;;;;;;10.30;5.53;;;14.10;99.90;;;;;;4966811;28;20281;-76
2021/06/11 04:16:45;;;;;;;9.33;5.27;;;14.20;99.90;;;;;;4969607;28;20266;-76
2021/06/11 04:19:18;;;;;;;9.13;5.47;;;14.20;99.90;;;;;;4958949;28;20258;-76
2021/06/11 04:21:50;;;;;;;11.57;5.80;;;14.20;99.90;;;;;;4935860;28;20207;-76
2021/06/11 04:24:17;;;;;;;8.27;5.30;;;14.10;99.90;;;;;;4953465;29;20317;-76
2021/06/11 04:26:47;;;;;;;9.43;5.77;;;14.20;99.90;;;;;;4957782;28;20624;-76
2021/06/11 04:29:16;;;;;;;10.67;5.87;;;14.10;99.90;;;;;;4969958;28;20688;-76
2021/06/11 04:31:43;;;;;;;7.60;5.60;;;14.10;99.90;;;;;;4952675;29;20262;-76
2021/06/11 04:34:15;;;;;;;7.83;5.70;;;14.10;99.90;;;;;;4962228;28;20641;-76
2021/06/11 04:36:43;;;;;;;8.40;5.23;;;14.20;99.90;;;;;;4971554;28;20229;-74
2021/06/11 04:39:09;;;;;;;9.77;5.40;;;14.20;99.90;;;;;;4972285;28;20241;-76
2021/06/11 04:41:37;;;;;;;8.23;5.33;;;14.30;99.90;;;;;;4961983;28;20290;-77
2021/06/11 04:44:07;;;;;;;7.97;5.03;;;14.30;99.90;;;;;;4963977;28;20237;-76
2021/06/11 04:46:34;;;;;;;7.50;4.67;;;14.40;99.90;;;;;;4971574;28;20778;-76
2021/06/11 04:49:01;;;;;;;9.47;4.40;;;14.30;99.90;;;;;;4973190;28;20253;-76
2021/06/11 04:51:28;;;;;;;6.37;3.90;;;14.30;99.90;;;;;;4976002;28;20214;-78
2021/06/11 04:53:54;;;;;;;9.57;3.93;;;14.30;99.90;;;;;;4945510;29;20242;-76
2021/06/11 04:56:20;;;;;;;8.37;4.00;;;14.30;99.90;;;;;;4963340;28;20285;-76
2021/06/11 04:58:48;;;;;;;7.20;3.90;;;14.40;99.90;;;;;;4974527;28;20715;-76
2021/06/11 05:01:16;;;;;;;5.17;3.77;;;14.40;99.90;;;;;;4968575;28;20616;-76
2021/06/11 05:03:43;;;;;;;5.33;3.77;;;14.30;99.90;;;;;;4966425;28;20688;-77
2021/06/11 05:06:09;;;;;;;5.63;3.30;;;14.40;99.90;;;;;;4965145;28;20306;-76
2021/06/11 05:08:36;;;;;;;5.10;3.53;;;14.40;99.90;;;;;;4961107;28;20230;-77
2021/06/11 05:11:03;;;;;;;4.47;3.53;;;14.40;99.90;;;;;;4969830;28;20381;-77
2021/06/11 05:13:30;;;;;;;7.10;3.70;;;14.50;99.90;;;;;;4956520;28;20199;-76
2021/06/11 05:15:56;;;;;;;5.03;3.73;;;14.40;99.90;;;;;;4964543;28;20222;-76
2021/06/11 05:18:27;;;;;;;6.20;4.20;;;14.50;99.90;;;;;;4964706;28;20541;-77
2021/06/11 05:20:53;;;;;;;5.13;3.90;;;14.50;99.90;;;;;;4964181;28;20223;-76
2021/06/11 05:23:21;;;;;;;8.97;4.40;;;14.60;99.90;;;;;;4963499;28;20254;-76
2021/06/11 05:25:48;;;;;;;5.07;4.00;;;14.60;99.90;;;;;;4963672;28;20223;-77
2021/06/11 05:28:15;;;;;;;7.93;4.37;;;14.80;99.90;;;;;;4962865;28;20301;-77
2021/06/11 05:30:42;;;;;;;8.30;3.90;;;14.90;99.90;;;;;;4965492;28;20196;-77
2021/06/11 05:33:08;;;;;;;5.93;4.20;;;14.90;99.90;;;;;;4965730;28;20239;-77
2021/06/11 05:35:36;;;;;;;6.10;4.30;;;15.00;99.90;;;;;;4967079;28;20226;-77
2021/06/11 05:38:05;;;;;;;6.10;4.63;;;15.10;99.90;;;;;;4959628;28;20214;-77
2021/06/11 05:40:32;;;;;;;5.73;4.10;;;15.20;99.90;;;;;;4957519;28;20257;-77
2021/06/11 05:42:58;;;;;;;6.47;5.03;;;15.30;99.90;;;;;;4971309;28;20624;-76
2021/06/11 05:45:25;;;;;;;7.00;4.60;;;15.40;99.90;;;;;;4969003;28;20233;-75
2021/06/11 05:47:52;;;;;;;8.00;4.80;;;15.50;99.90;;;;;;4967954;28;20563;-76
2021/06/11 05:50:18;;;;;;;8.07;4.50;;;15.40;99.90;;;;;;4970020;28;20325;-76
2021/06/11 05:52:47;;;;;;;6.27;4.60;;;15.40;99.90;;;;;;4961038;28;20233;-76
2021/06/11 05:55:14;;;;;;;7.50;4.60;;;15.50;99.90;;;;;;4973982;28;20202;-76
2021/06/11 05:57:41;;;;;;;8.10;4.80;;;15.60;99.90;;;;;;4972508;28;20249;-75
2021/06/11 06:00:09;;;;;;;6.87;5.10;;;15.60;99.90;;;;;;4968763;28;20649;-76
2021/06/11 06:02:36;;;;;;;6.83;5.13;;;15.70;99.90;;;;;;4953335;28;20231;-74
2021/06/11 06:05:03;;;;;;;7.33;5.10;;;15.90;99.90;;;;;;4953655;28;20298;-76
2021/06/11 06:07:29;;;;;;;5.33;4.30;;;16.10;99.90;;;;;;4963138;28;20300;-75
2021/06/11 06:09:57;;;;;;;5.90;4.50;;;16.00;99.90;;;;;;4973081;28;20238;-75
2021/06/11 06:12:24;;;;;;;5.00;4.50;;;16.10;99.90;;;;;;4973506;28;20234;-76
2021/06/11 06:14:50;;;;;;;5.97;4.50;;;16.30;99.90;;;;;;4971089;28;20238;-75
2021/06/11 06:17:17;;;;;;;5.10;4.20;;;16.60;99.90;;;;;;4974020;28;20202;-76
2021/06/11 06:19:43;;;;;;;4.50;4.10;;;16.90;99.90;;;;;;4945554;29;20288;-76
2021/06/11 06:22:10;;;;;;;5.50;4.33;;;16.50;99.90;;;;;;4959645;28;20218;-75
2021/06/11 06:24:37;;;;;;;4.73;4.00;;;16.40;99.90;;;;;;4966136;28;20338;-76
2021/06/11 06:27:05;;;;;;;5.13;4.37;;;16.40;99.90;;;;;;4969102;28;20294;-76
2021/06/11 06:29:31;;;;;;;6.83;4.50;;;16.50;99.90;;;;;;4963551;28;20234;-75
2021/06/11 06:31:58;;;;;;;4.93;4.40;;;16.50;99.90;;;;;;4956265;28;20781;-75
2021/06/11 06:34:25;;;;;;;4.77;4.17;;;16.70;99.90;;;;;;4973814;28;20230;-75
2021/06/11 06:36:52;;;;;;;5.97;4.93;;;16.90;99.90;;;;;;4968566;28;20217;-75
2021/06/11 06:39:18;;;;;;;4.77;4.27;;;17.00;99.90;;;;;;4954311;28;20286;-75
2021/06/11 06:41:45;;;;;;;5.63;4.70;;;17.00;99.90;;;;;;4953982;28;20703;-75
2021/06/11 06:44:13;;;;;;;5.73;4.93;;;16.90;99.90;;;;;;4937290;29;20231;-76
2021/06/11 06:46:39;;;;;;;5.50;4.80;;;17.10;99.90;;;;;;4958083;28;20199;-75
2021/06/11 06:49:07;;;;;;;6.27;4.80;;;17.60;99.90;;;;;;4957522;28;20723;-75
2021/06/11 06:51:33;;;;;;;6.03;4.67;;;17.70;99.90;;;;;;4966095;28;20262;-75
2021/06/11 06:54:00;;;;;;;6.60;4.83;;;18.40;99.90;;;;;;4954009;28;20246;-76
2021/06/11 06:56:28;;;;;;;4.85;4.07;;;19.20;99.90;;;;;;4954153;28;20207;-76
2021/06/11 06:58:56;;;;;;;4.60;4.05;;;20.90;99.90;;;;;;4953123;28;20685;-76
2021/06/11 07:01:24;;;;;;;4.35;3.83;;;21.60;99.90;;;;;;4959478;28;20206;-73
2021/06/11 07:03:51;;;;;;;4.10;3.70;;;21.90;99.90;;;;;;4972696;28;20691;-73
2021/06/11 07:06:17;;;;;;;4.43;3.85;;;22.10;99.90;;;;;;4973283;28;20218;-74
2021/06/11 07:08:44;;;;;;;5.18;3.78;;;22.50;99.90;;;;;;4972562;28;20297;-74
2021/06/11 07:11:10;;;;;;;4.40;3.80;;;22.60;99.90;;;;;;4953713;28;20235;-74
2021/06/11 07:13:36;;;;;;;4.20;3.30;;;23.40;99.90;;;;;;4958790;28;20285;-74
2021/06/11 07:16:03;;;;;;;3.78;3.17;;;22.90;99.90;;;;;;4970953;28;20278;-74
2021/06/11 07:18:30;;;;;;;4.90;3.47;;;23.20;99.90;;;;;;4959197;28;20294;-74
2021/06/11 07:20:57;;;;;;;3.78;3.47;;;22.90;99.90;;;;;;4953160;28;20253;-74
2021/06/11 07:23:23;;;;;;;3.75;3.30;;;23.00;99.90;;;;;;4953801;28;20293;-74
2021/06/11 07:25:50;;;;;;;3.92;3.53;;;23.70;99.90;;;;;;4953369;28;20250;-75
2021/06/11 07:28:16;;;;;;;3.92;3.63;;;23.70;99.90;;;;;;4954049;28;20235;-74
2021/06/11 07:30:42;;;;;;;5.65;4.35;;;23.60;99.90;;;;;;4972480;28;20293;-75
2021/06/11 07:33:09;;;;;;;4.38;3.97;;;24.60;99.90;;;;;;4968079;28;20684;-75
2021/06/11 07:35:37;;;;;;;4.60;4.20;;;25.50;99.90;;;;;;4972961;28;20233;-75
2021/06/11 07:38:05;;;;;;;5.65;4.80;;;24.50;99.90;;;;;;4972898;28;20206;-75
2021/06/11 07:40:31;;;;;;;4.65;4.25;;;22.90;99.90;;;;;;4972839;28;20198;-75
2021/06/11 07:42:58;;;;;;;5.40;4.90;;;22.90;99.90;;;;;;4971976;28;20305;-75
2021/06/11 07:45:24;;;;;;;5.28;4.78;;;23.00;99.90;;;;;;4968194;28;20277;-75
2021/06/11 07:47:51;;;;;;;4.25;3.85;;;23.90;99.90;;;;;;4953237;28;20222;-76
2021/06/11 07:50:17;;;;;;;4.47;3.70;;;25.00;99.90;;;;;;4953100;29;20369;-75
2021/06/11 07:52:45;;;;;;;3.70;3.40;;;25.60;99.90;;;;;;4968227;28;20214;-76
2021/06/11 07:55:11;;;;;;;4.25;3.85;;;25.40;99.90;;;;;;4957011;28;20210;-75
2021/06/11 07:57:38;;;;;;;4.55;3.90;;;25.10;99.90;;;;;;4972355;28;20590;-75
2021/06/11 08:00:06;;;;;;;3.58;3.28;;;24.20;99.90;;;;;;4972430;28;20217;-75
2021/06/11 08:02:32;;;;;;;3.20;3.00;;;24.90;99.90;;;;;;4965035;28;20661;-75
2021/06/11 08:04:58;;;;;;;3.30;3.00;;;25.80;99.90;;;;;;4972574;28;20318;-75
2021/06/11 08:07:29;;;;;;;3.53;3.22;;;26.20;99.90;;;;;;4968484;28;20643;-75
2021/06/11 08:09:57;;;;;;;3.20;2.90;;;26.10;99.90;;;;;;4962621;28;20214;-75
2021/06/11 08:12:24;;;;;;;3.28;2.88;;;26.50;99.90;;;;;;4971509;28;20206;-75
2021/06/11 08:14:50;;;;;;;3.10;2.80;;;26.50;99.90;;;;;;4957056;28;20295;-75
2021/06/11 08:17:17;;;;;;;3.20;2.90;;;26.40;99.90;;;;;;4958875;28;20207;-75
2021/06/11 08:19:43;;;;;;;2.90;2.67;;;27.00;99.90;;;;;;4966528;28;20294;-76
2021/06/11 08:22:10;;;;;;;3.50;3.20;;;26.30;99.90;;;;;;4953385;29;20235;-75
2021/06/11 08:24:37;;;;;;;3.60;2.55;;;25.60;99.90;;;;;;4966649;28;20727;-75
2021/06/11 08:27:05;;;;;;;4.75;2.80;;;25.60;99.90;;;;;;4964233;28;20214;-76
2021/06/11 08:29:31;;;;;;;2.95;2.55;;;26.40;99.90;;;;;;4970516;28;20237;-75
2021/06/11 08:31:59;;;;;;;3.28;2.83;;;26.50;99.90;;;;;;4976492;28;20289;-75
2021/06/11 08:34:27;;;;;;;2.83;2.63;;;26.30;99.90;;;;;;4974717;28;20269;-77
2021/06/11 08:36:53;;;;;;;2.85;2.40;;;27.00;99.90;;;;;;4976131;28;20198;-76
2021/06/11 08:39:19;;;;;;;2.97;2.78;;;27.40;99.90;;;;;;4975294;28;20225;-76
2021/06/11 08:41:46;;;;;;;2.70;2.50;;;26.50;99.90;;;;;;4966304;28;20241;-76
2021/06/11 08:44:14;;;;;;;4.10;2.90;;;26.40;99.90;;;;;;4957060;29;20243;-76
2021/06/11 08:46:42;;;;;;;3.47;2.90;;;25.40;99.90;;;;;;4969244;28;20277;-76
2021/06/11 08:49:08;;;;;;;2.70;2.50;;;25.30;99.90;;;;;;4958134;28;20242;-76
2021/06/11 08:51:34;;;;;;;3.92;2.90;;;26.00;99.90;;;;;;4945874;28;20298;-76
2021/06/11 08:54:01;;;;;;;3.28;2.97;;;27.10;99.90;;;;;;4961790;28;20651;-76
2021/06/11 08:56:28;;;;;;;2.88;2.67;;;28.60;99.90;;;;;;4975060;28;20719;-77
2021/06/11 08:58:54;;;;;;;2.80;2.53;;;28.70;99.90;;;;;;4974352;28;20234;-76
2021/06/11 09:01:22;;;;;;;3.90;2.45;;;28.70;99.90;;;;;;4956434;29;20230;-76
2021/06/11 09:03:56;;;;;;;2.63;2.40;;;28.60;99.90;;;;;;4962786;28;20203;-76
2021/06/11 09:06:23;;;;;;;2.88;2.58;;;29.10;99.90;;;;;;4960799;28;20719;-77
2021/06/11 09:08:52;;;;;;;2.55;2.35;;;29.70;99.90;;;;;;4974751;28;20281;-77
2021/06/11 09:11:20;;;;;;;2.58;2.38;;;30.30;99.90;;;;;;4975077;28;20230;-77
2021/06/11 09:13:50;;;;;;;2.67;2.13;;;30.60;99.90;;;;;;4975499;28;20202;-76
2021/06/11 09:16:18;;;;;;;2.63;2.40;;;30.80;99.90;;;;;;4974609;28;20743;-77
2021/06/11 09:18:49;;;;;;;4.32;2.45;;;30.70;99.90;;;;;;4940654;29;20709;-76
2021/06/11 09:21:31;;;;;;;2.83;2.00;;;30.30;99.90;;;;;;4958164;28;20199;-77
2021/06/11 09:24:22;;;;;;;2.83;2.33;;;31.00;99.90;;;;;;4968261;28;20198;-77
2021/06/11 09:27:09;;;;;;;2.20;2.00;;;30.50;99.90;;;;;;4956139;28;20245;-77
2021/06/11 09:29:37;;;;;;;2.58;2.25;;;30.70;99.90;;;;;;4956149;29;20225;-76
2021/06/11 09:32:13;;;;;;;2.67;2.30;;;30.50;99.90;;;;;;4956102;28;20199;-84
2021/06/11 09:34:42;;;;;;;2.60;2.15;;;30.80;99.90;;;;;;4970750;28;20206;-83
2021/06/11 09:37:11;;;;;;;2.25;2.05;;;30.60;99.90;;;;;;4974807;28;20236;-83
2021/06/11 09:39:42;;;;;;;1.88;1.67;;;29.80;99.90;;;;;;4974787;28;20240;-83
2021/06/11 09:42:10;;;;;;;2.88;1.92;;;29.50;99.90;;;;;;4962137;28;20230;-83
2021/06/11 09:44:36;;;;;;;1.80;1.70;;;29.30;99.90;;;;;;4956455;29;20199;-83
2021/06/11 09:47:04;;;;;;;5.32;1.70;;;30.80;99.90;;;;;;4955561;29;20239;-83
2021/06/11 09:49:42;;;;;;;2.55;1.73;;;32.00;99.90;;;;;;4955553;29;20314;-83
2021/06/11 09:52:10;;;;;;;1.70;1.60;;;31.30;99.90;;;;;;4972818;28;20206;-83
2021/06/11 09:54:37;;;;;;;1.67;1.58;;;31.40;99.90;;;;;;4967689;28;20235;-84
2021/06/11 09:57:21;;;;;;;1.70;1.60;;;30.70;99.90;;;;;;4957983;28;20290;-83
2021/06/11 09:59:48;;;;;;;3.20;1.50;;;31.30;99.90;;;;;;4974267;28;20638;-84
2021/06/11 10:02:16;;;;;;;1.60;1.50;;;32.00;99.90;;;;;;4975137;28;20245;-84
2021/06/11 10:04:45;;;;;;;2.55;1.80;;;31.90;99.90;;;;;;4974515;28;20234;-84
2021/06/11 10:07:12;;;;;;;3.83;1.80;;;32.60;99.90;;;;;;4957024;28;20209;-83
2021/06/11 10:09:41;;;;;;;2.78;1.58;;;32.50;99.90;;;;;;4938535;29;20289;-84
2021/06/11 10:12:10;;;;;;;1.92;1.73;;;33.60;99.90;;;;;;4955476;28;20250;-84
2021/06/11 10:14:36;;;;;;;1.67;1.58;;;31.60;99.90;;;;;;4966660;28;20258;-83
2021/06/11 10:17:06;;;;;;;2.00;1.90;;;31.20;99.90;;;;;;4962225;28;20211;-83
2021/06/11 10:19:32;;;;;;;2.05;1.70;;;31.10;99.90;;;;;;4955627;29;20242;-84
2021/06/11 10:22:01;;;;;;;1.70;1.60;;;32.10;99.90;;;;;;4955428;29;20306;-84
2021/06/11 10:24:28;;;;;;;4.60;1.60;;;32.90;99.90;;;;;;4966016;28;20198;-84
2021/06/11 10:26:54;;;;;;;1.83;1.65;;;31.50;99.90;;;;;;4971633;28;20262;-84
2021/06/11 10:29:24;;;;;;;1.95;1.60;;;32.20;99.90;;;;;;4974765;28;20285;-84
2021/06/11 10:31:51;;;;;;;2.03;1.48;;;32.30;99.90;;;;;;4962164;28;20680;-83
2021/06/11 10:34:17;;;;;;;1.58;1.48;;;31.30;99.90;;;;;;4974786;28;20637;-84
2021/06/11 10:36:46;;;;;;;2.17;1.30;;;33.00;99.90;;;;;;4974951;28;20230;-84
2021/06/11 10:39:27;;;;;;;2.53;1.40;;;33.30;99.90;;;;;;4968015;28;20576;-84
2021/06/11 10:42:04;;;;;;;1.60;1.50;;;32.70;99.90;;;;;;4956173;28;20226;-84
2021/06/11 10:44:41;;;;;;;2.95;1.25;;;32.30;99.90;;;;;;4972891;28;20242;-83
2021/06/11 10:47:28;;;;;;;1.65;1.10;;;32.50;99.90;;;;;;4973861;28;20206;-84
2021/06/11 10:50:06;;;;;;;2.55;1.05;;;32.40;99.90;;;;;;4955912;28;20305;-82
2021/06/11 10:52:34;;;;;;;1.65;1.40;;;32.70;99.90;;;;;;4972234;28;20217;-83
2021/06/11 10:55:57;;;;;;;1.52;1.30;;;32.00;99.90;;;;;;4974564;28;20670;-83
2021/06/11 10:58:33;;;;;;;6.20;1.30;;;32.40;99.90;;;;;;4972030;28;20214;-83
2021/06/11 11:00:59;;;;;;;1.70;1.25;;;33.00;99.90;;;;;;4974650;28;20217;-84
2021/06/11 11:03:41;;;;;;;1.83;1.30;;;32.40;99.90;;;;;;4972998;28;20222;-83
2021/06/11 11:06:30;;;;;;;1.92;1.40;;;31.60;99.90;;;;;;4974238;28;20225;-83
2021/06/11 11:08:58;;;;;;;1.33;1.10;;;31.40;99.90;;;;;;4957606;28;20233;-83
2021/06/11 11:11:30;;;;;;;2.75;1.27;;;31.20;99.90;;;;;;4956563;28;20214;-83
2021/06/11 11:14:24;;;;;;;1.85;1.10;;;31.80;99.90;;;;;;4974090;28;20640;-85
2021/06/11 11:16:58;;;;;;;1.45;1.25;;;31.90;99.90;;;;;;4964909;28;20264;-83
2021/06/11 11:19:53;;;;;;;1.05;1.00;;;32.40;99.90;;;;;;4973968;28;20209;-83
2021/06/11 11:22:24;;;;;;;2.15;1.50;;;31.20;99.90;;;;;;4956508;28;20198;-80
2021/06/11 11:24:51;;;;;;;3.28;1.33;;;31.40;99.90;;;;;;4972928;28;20981;-83
2021/06/11 11:27:18;;;;;;;2.13;1.30;;;32.00;99.90;;;;;;4975240;28;20206;-83
2021/06/11 11:29:46;;;;;;;1.80;1.50;;;32.00;99.90;;;;;;4974893;28;20202;-83
2021/06/11 11:32:13;;;;;;;2.30;1.10;;;33.20;99.90;;;;;;4974032;28;20240;-83
2021/06/11 11:34:39;;;;;;;1.58;1.33;;;33.10;99.90;;;;;;4973828;28;20305;-84
2021/06/11 11:37:05;;;;;;;3.45;1.30;;;34.50;99.90;;;;;;4965676;28;20230;-83
2021/06/11 11:39:32;;;;;;;1.83;1.10;;;34.10;99.90;;;;;;4941051;28;20234;-84
2021/06/11 11:41:58;;;;;;;2.42;1.48;;;33.80;99.90;;;;;;4973031;28;20199;-84
2021/06/11 11:44:26;;;;;;;1.50;0.90;;;33.40;99.90;;;;;;4959330;28;20238;-83
2021/06/11 11:46:54;;;;;;;1.40;1.30;;;33.60;99.90;;;;;;4963262;28;20223;-84
2021/06/11 11:49:22;;;;;;;1.30;1.20;;;34.60;99.90;;;;;;4964710;28;20238;-83
2021/06/11 11:51:49;;;;;;;1.08;0.90;;;34.80;99.90;;;;;;4972164;28;20293;-84
2021/06/11 11:54:16;;;;;;;1.40;1.30;;;34.90;99.90;;;;;;4973846;28;20684;-84
2021/06/11 11:56:42;;;;;;;2.42;1.50;;;34.20;99.90;;;;;;4971463;28;20284;-84
2021/06/11 11:59:09;;;;;;;2.22;1.35;;;33.80;99.90;;;;;;4972141;28;20229;-84
2021/06/11 12:01:43;;;;;;;1.60;1.40;;;33.60;99.90;;;;;;4954044;28;20234;-84
2021/06/11 12:04:13;;;;;;;3.30;1.48;;;34.40;99.90;;;;;;4970905;28;20700;-83
2021/06/11 12:06:41;;;;;;;2.08;1.30;;;36.10;99.90;;;;;;4968047;28;20258;-84
2021/06/11 12:09:08;;;;;;;1.50;1.40;;;35.00;99.80;;;;;;4971162;28;20632;-84
2021/06/11 12:11:34;;;;;;;1.45;1.20;;;35.30;99.90;;;;;;4974775;28;20210;-84
2021/06/11 12:14:01;;;;;;;2.33;1.58;;;34.40;99.90;;;;;;4973010;28;20950;-84
2021/06/11 12:16:28;;;;;;;3.15;1.50;;;34.50;99.90;;;;;;4969322;28;20672;-83
2021/06/11 12:18:54;;;;;;;3.30;1.40;;;34.80;99.90;;;;;;4966225;28;20237;-83
2021/06/11 12:21:28;;;;;;;1.48;1.38;;;35.80;99.90;;;;;;4961223;28;20210;-84
2021/06/11 12:23:57;;;;;;;1.30;1.20;;;34.70;99.90;;;;;;4972844;28;20217;-84
2021/06/11 12:26:24;;;;;;;1.73;1.63;;;35.70;99.30;;;;;;4972272;28;20710;-84
2021/06/11 12:28:51;;;;;;;4.15;1.58;;;34.10;99.90;;;;;;4974594;28;20206;-84
2021/06/11 12:31:18;;;;;;;2.40;1.55;;;33.70;99.90;;;;;;4971154;28;20205;-84
2021/06/11 12:33:44;;;;;;;1.52;1.35;;;34.30;99.90;;;;;;4973685;28;20258;-85
2021/06/11 12:36:11;;;;;;;1.83;1.38;;;34.00;99.90;;;;;;4954673;28;20237;-84
2021/06/11 12:38:42;;;;;;;1.88;1.67;;;33.90;99.90;;;;;;4954405;28;20234;-84
2021/06/11 12:41:10;;;;;;;1.92;1.35;;;33.50;99.90;;;;;;4954630;29;20282;-83
2021/06/11 12:46:23;;;;;;;2.55;1.40;;;33.10;99.90;;;;;;4972014;28;20277;-84
2021/06/11 12:48:49;;;;;;;2.75;1.40;;;35.10;99.90;;;;;;4972531;28;20884;-85
2021/06/11 12:51:17;;;;;;;1.83;1.20;;;34.40;99.90;;;;;;4963692;28;20238;-84
2021/06/11 12:53:45;;;;;;;2.22;1.33;;;34.40;99.90;;;;;;4972815;28;20623;-84
2021/06/11 12:56:11;;;;;;;1.35;1.25;;;35.20;99.70;;;;;;4974405;28;20206;-84